sensor_id;sensor_type;location;lat;lon;timestamp;temperature;humidity
11812;DHT22;5963;50.184;9.162;2022-07-29T00:02:09;20.40;88.00
11812;DHT22;5963;50.184;9.162;2022-07-29T00:04:37;20.40;88.80
11812;DHT22;5963;50.184;9.162;2022-07-29T00:07:05;20.40;88.30
11812;DHT22;5963;50.184;9.162;2022-07-29T00:09:33;20.30;88.60
11812;DHT22;5963;50.184;9.162;2022-07-29T00:12:18;20.30;88.20
11812;DHT22;5963;50.184;9.162;2022-07-29T00:14:52;20.40;88.20
11812;DHT22;5963;50.184;9.162;2022-07-29T00:17:22;20.40;87.40
11812;DHT22;5963;50.184;9.162;2022-07-29T00:19:50;20.40;87.00
11812;DHT22;5963;50.184;9.162;2022-07-29T00:22:19;20.50;87.00
11812;DHT22;5963;50.184;9.162;2022-07-29T00:24:48;20.50;86.90
11812;DHT22;5963;50.184;9.162;2022-07-29T00:27:17;20.50;86.50
11812;DHT22;5963;50.184;9.162;2022-07-29T00:29:45;20.60;86.70
11812;DHT22;5963;50.184;9.162;2022-07-29T00:32:13;20.60;86.20
11812;DHT22;5963;50.184;9.162;2022-07-29T00:34:43;20.60;86.10
11812;DHT22;5963;50.184;9.162;2022-07-29T00:37:28;20.60;86.20
11812;DHT22;5963;50.184;9.162;2022-07-29T00:39:56;20.60;86.10
11812;DHT22;5963;50.184;9.162;2022-07-29T00:42:25;20.60;86.30
11812;DHT22;5963;50.184;9.162;2022-07-29T00:44:54;20.60;86.10
11812;DHT22;5963;50.184;9.162;2022-07-29T00:47:22;20.60;85.90
11812;DHT22;5963;50.184;9.162;2022-07-29T00:49:52;20.70;85.90
11812;DHT22;5963;50.184;9.162;2022-07-29T00:52:20;20.60;85.90
11812;DHT22;5963;50.184;9.162;2022-07-29T00:54:48;20.60;86.00
11812;DHT22;5963;50.184;9.162;2022-07-29T00:57:16;20.60;86.00
11812;DHT22;5963;50.184;9.162;2022-07-29T00:59:45;20.50;86.00
11812;DHT22;5963;50.184;9.162;2022-07-29T01:02:15;20.50;86.20
11812;DHT22;5963;50.184;9.162;2022-07-29T01:04:44;20.50;86.40
11812;DHT22;5963;50.184;9.162;2022-07-29T01:07:13;20.50;86.10
11812;DHT22;5963;50.184;9.162;2022-07-29T01:09:42;20.50;86.10
11812;DHT22;5963;50.184;9.162;2022-07-29T01:12:15;20.50;86.00
11812;DHT22;5963;50.184;9.162;2022-07-29T01:14:45;20.50;86.20
11812;DHT22;5963;50.184;9.162;2022-07-29T01:17:18;20.60;85.80
11812;DHT22;5963;50.184;9.162;2022-07-29T01:19:53;20.70;86.10
11812;DHT22;5963;50.184;9.162;2022-07-29T01:22:35;20.70;85.80
11812;DHT22;5963;50.184;9.162;2022-07-29T01:25:37;20.70;85.90
11812;DHT22;5963;50.184;9.162;2022-07-29T01:28:40;20.80;86.30
11812;DHT22;5963;50.184;9.162;2022-07-29T01:31:12;20.70;86.30
11812;DHT22;5963;50.184;9.162;2022-07-29T01:33:57;20.70;86.90
11812;DHT22;5963;50.184;9.162;2022-07-29T01:36:30;20.50;88.10
11812;DHT22;5963;50.184;9.162;2022-07-29T01:39:06;20.30;89.20
11812;DHT22;5963;50.184;9.162;2022-07-29T01:41:38;20.10;90.00
11812;DHT22;5963;50.184;9.162;2022-07-29T01:44:13;19.90;90.50
11812;DHT22;5963;50.184;9.162;2022-07-29T01:46:49;19.90;90.40
11812;DHT22;5963;50.184;9.162;2022-07-29T01:49:22;19.90;90.70
11812;DHT22;5963;50.184;9.162;2022-07-29T01:51:54;19.90;90.80
11812;DHT22;5963;50.184;9.162;2022-07-29T01:54:29;19.80;91.50
11812;DHT22;5963;50.184;9.162;2022-07-29T01:56:59;19.70;91.60
11812;DHT22;5963;50.184;9.162;2022-07-29T01:59:30;19.80;91.30
11812;DHT22;5963;50.184;9.162;2022-07-29T02:02:01;19.70;90.80
11812;DHT22;5963;50.184;9.162;2022-07-29T02:04:32;19.70;91.60
11812;DHT22;5963;50.184;9.162;2022-07-29T02:07:03;19.70;91.00
11812;DHT22;5963;50.184;9.162;2022-07-29T02:09:35;19.70;90.90
11812;DHT22;5963;50.184;9.162;2022-07-29T02:12:04;19.80;90.50
11812;DHT22;5963;50.184;9.162;2022-07-29T02:14:37;19.60;91.50
11812;DHT22;5963;50.184;9.162;2022-07-29T02:17:06;19.40;91.40
11812;DHT22;5963;50.184;9.162;2022-07-29T02:19:37;19.50;91.40
11812;DHT22;5963;50.184;9.162;2022-07-29T02:22:06;19.60;91.10
11812;DHT22;5963;50.184;9.162;2022-07-29T02:24:35;19.90;90.40
11812;DHT22;5963;50.184;9.162;2022-07-29T02:27:05;19.90;90.60
11812;DHT22;5963;50.184;9.162;2022-07-29T02:29:34;19.90;90.30
11812;DHT22;5963;50.184;9.162;2022-07-29T02:32:04;19.90;90.50
11812;DHT22;5963;50.184;9.162;2022-07-29T02:34:33;19.80;90.50
11812;DHT22;5963;50.184;9.162;2022-07-29T02:37:04;19.70;90.20
11812;DHT22;5963;50.184;9.162;2022-07-29T02:39:34;19.70;90.00
11812;DHT22;5963;50.184;9.162;2022-07-29T02:42:05;19.80;90.10
11812;DHT22;5963;50.184;9.162;2022-07-29T02:44:36;19.70;90.00
11812;DHT22;5963;50.184;9.162;2022-07-29T02:47:12;19.60;89.80
11812;DHT22;5963;50.184;9.162;2022-07-29T02:49:48;19.60;89.60
11812;DHT22;5963;50.184;9.162;2022-07-29T02:52:20;19.60;89.80
11812;DHT22;5963;50.184;9.162;2022-07-29T02:54:53;19.70;90.00
11812;DHT22;5963;50.184;9.162;2022-07-29T02:57:30;19.60;90.00
11812;DHT22;5963;50.184;9.162;2022-07-29T03:00:06;19.60;90.20
11812;DHT22;5963;50.184;9.162;2022-07-29T03:02:37;19.50;90.30
11812;DHT22;5963;50.184;9.162;2022-07-29T03:05:09;19.30;90.40
11812;DHT22;5963;50.184;9.162;2022-07-29T03:07:38;19.20;90.50
11812;DHT22;5963;50.184;9.162;2022-07-29T03:10:08;19.10;90.20
11812;DHT22;5963;50.184;9.162;2022-07-29T03:12:40;19.10;90.10
11812;DHT22;5963;50.184;9.162;2022-07-29T03:15:10;19.10;90.00
11812;DHT22;5963;50.184;9.162;2022-07-29T03:17:39;19.20;90.10
11812;DHT22;5963;50.184;9.162;2022-07-29T03:20:08;19.10;90.50
11812;DHT22;5963;50.184;9.162;2022-07-29T03:22:39;19.10;90.40
11812;DHT22;5963;50.184;9.162;2022-07-29T03:25:10;19.10;90.50
11812;DHT22;5963;50.184;9.162;2022-07-29T03:27:38;19.20;90.50
11812;DHT22;5963;50.184;9.162;2022-07-29T03:30:10;19.20;90.60
11812;DHT22;5963;50.184;9.162;2022-07-29T03:32:44;19.20;90.50
11812;DHT22;5963;50.184;9.162;2022-07-29T03:35:12;19.10;90.40
11812;DHT22;5963;50.184;9.162;2022-07-29T03:37:40;19.00;90.40
11812;DHT22;5963;50.184;9.162;2022-07-29T03:40:11;19.10;90.70
11812;DHT22;5963;50.184;9.162;2022-07-29T03:42:40;19.10;90.60
11812;DHT22;5963;50.184;9.162;2022-07-29T03:45:15;19.00;90.70
11812;DHT22;5963;50.184;9.162;2022-07-29T03:47:48;19.10;90.80
11812;DHT22;5963;50.184;9.162;2022-07-29T03:50:24;19.10;90.90
11812;DHT22;5963;50.184;9.162;2022-07-29T03:52:52;19.10;90.90
11812;DHT22;5963;50.184;9.162;2022-07-29T03:55:20;19.00;91.20
11812;DHT22;5963;50.184;9.162;2022-07-29T03:57:49;19.00;91.10
11812;DHT22;5963;50.184;9.162;2022-07-29T04:00:19;18.90;91.10
11812;DHT22;5963;50.184;9.162;2022-07-29T04:02:47;19.00;91.20
11812;DHT22;5963;50.184;9.162;2022-07-29T04:05:16;19.00;91.30
11812;DHT22;5963;50.184;9.162;2022-07-29T04:07:45;18.90;91.20
11812;DHT22;5963;50.184;9.162;2022-07-29T04:10:14;18.70;91.40
11812;DHT22;5963;50.184;9.162;2022-07-29T04:12:55;18.50;91.50
11812;DHT22;5963;50.184;9.162;2022-07-29T04:15:25;18.60;91.50
11812;DHT22;5963;50.184;9.162;2022-07-29T04:17:57;18.60;91.60
11812;DHT22;5963;50.184;9.162;2022-07-29T04:20:26;18.80;91.60
11812;DHT22;5963;50.184;9.162;2022-07-29T04:22:54;18.90;91.60
11812;DHT22;5963;50.184;9.162;2022-07-29T04:25:22;19.00;91.40
11812;DHT22;5963;50.184;9.162;2022-07-29T04:27:50;18.90;91.50
11812;DHT22;5963;50.184;9.162;2022-07-29T04:30:33;19.00;91.60
11812;DHT22;5963;50.184;9.162;2022-07-29T04:33:02;18.80;91.50
11812;DHT22;5963;50.184;9.162;2022-07-29T04:35:33;18.70;91.80
11812;DHT22;5963;50.184;9.162;2022-07-29T04:38:05;18.70;91.70
11812;DHT22;5963;50.184;9.162;2022-07-29T04:40:43;18.80;91.90
11812;DHT22;5963;50.184;9.162;2022-07-29T04:43:13;18.90;92.00
11812;DHT22;5963;50.184;9.162;2022-07-29T04:45:43;18.70;91.80
11812;DHT22;5963;50.184;9.162;2022-07-29T04:48:11;18.80;92.10
11812;DHT22;5963;50.184;9.162;2022-07-29T04:50:40;18.90;92.00
11812;DHT22;5963;50.184;9.162;2022-07-29T04:53:08;19.00;91.90
11812;DHT22;5963;50.184;9.162;2022-07-29T04:55:37;18.90;91.80
11812;DHT22;5963;50.184;9.162;2022-07-29T04:58:05;18.80;92.20
11812;DHT22;5963;50.184;9.162;2022-07-29T05:00:34;18.80;92.20
11812;DHT22;5963;50.184;9.162;2022-07-29T05:03:04;18.70;92.20
11812;DHT22;5963;50.184;9.162;2022-07-29T05:05:32;18.70;92.30
11812;DHT22;5963;50.184;9.162;2022-07-29T05:08:00;18.70;92.20
11812;DHT22;5963;50.184;9.162;2022-07-29T05:10:28;18.70;92.10
11812;DHT22;5963;50.184;9.162;2022-07-29T05:12:56;18.70;92.20
11812;DHT22;5963;50.184;9.162;2022-07-29T05:15:24;18.60;92.40
11812;DHT22;5963;50.184;9.162;2022-07-29T05:17:52;18.80;92.50
11812;DHT22;5963;50.184;9.162;2022-07-29T05:20:22;18.80;92.30
11812;DHT22;5963;50.184;9.162;2022-07-29T05:22:53;18.80;92.10
11812;DHT22;5963;50.184;9.162;2022-07-29T05:25:21;18.70;92.30
11812;DHT22;5963;50.184;9.162;2022-07-29T05:28:08;18.70;92.50
11812;DHT22;5963;50.184;9.162;2022-07-29T05:30:37;18.60;92.20
11812;DHT22;5963;50.184;9.162;2022-07-29T05:33:05;18.60;92.50
11812;DHT22;5963;50.184;9.162;2022-07-29T05:35:34;18.70;92.60
11812;DHT22;5963;50.184;9.162;2022-07-29T05:38:04;18.80;92.70
11812;DHT22;5963;50.184;9.162;2022-07-29T05:40:33;18.80;92.60
11812;DHT22;5963;50.184;9.162;2022-07-29T05:43:01;18.70;92.60
11812;DHT22;5963;50.184;9.162;2022-07-29T05:45:29;18.60;92.90
11812;DHT22;5963;50.184;9.162;2022-07-29T05:47:57;18.60;93.00
11812;DHT22;5963;50.184;9.162;2022-07-29T05:50:25;18.60;93.10
11812;DHT22;5963;50.184;9.162;2022-07-29T05:52:55;18.60;93.20
11812;DHT22;5963;50.184;9.162;2022-07-29T05:55:23;18.70;93.30
11812;DHT22;5963;50.184;9.162;2022-07-29T05:57:55;18.80;93.20
11812;DHT22;5963;50.184;9.162;2022-07-29T06:00:23;18.70;93.50
11812;DHT22;5963;50.184;9.162;2022-07-29T06:02:51;18.70;93.40
11812;DHT22;5963;50.184;9.162;2022-07-29T06:05:20;18.70;93.40
11812;DHT22;5963;50.184;9.162;2022-07-29T06:07:48;18.70;93.30
11812;DHT22;5963;50.184;9.162;2022-07-29T06:10:18;18.80;93.60
11812;DHT22;5963;50.184;9.162;2022-07-29T06:12:52;19.00;93.40
11812;DHT22;5963;50.184;9.162;2022-07-29T06:15:20;19.50;93.20
11812;DHT22;5963;50.184;9.162;2022-07-29T06:17:49;19.70;93.00
11812;DHT22;5963;50.184;9.162;2022-07-29T06:20:27;20.00;92.50
11812;DHT22;5963;50.184;9.162;2022-07-29T06:22:57;19.60;92.40
11812;DHT22;5963;50.184;9.162;2022-07-29T06:25:26;19.50;92.70
11812;DHT22;5963;50.184;9.162;2022-07-29T06:27:55;19.40;93.10
11812;DHT22;5963;50.184;9.162;2022-07-29T06:30:24;19.40;93.10
11812;DHT22;5963;50.184;9.162;2022-07-29T06:32:52;19.50;93.10
11812;DHT22;5963;50.184;9.162;2022-07-29T06:35:20;20.30;93.10
11812;DHT22;5963;50.184;9.162;2022-07-29T06:38:08;21.10;92.20
11812;DHT22;5963;50.184;9.162;2022-07-29T06:41:00;20.90;92.10
11812;DHT22;5963;50.184;9.162;2022-07-29T06:43:31;20.70;92.70
11812;DHT22;5963;50.184;9.162;2022-07-29T06:46:01;20.70;92.10
11812;DHT22;5963;50.184;9.162;2022-07-29T06:48:30;20.50;92.40
11812;DHT22;5963;50.184;9.162;2022-07-29T06:51:01;20.20;92.90
11812;DHT22;5963;50.184;9.162;2022-07-29T06:53:32;20.00;93.20
11812;DHT22;5963;50.184;9.162;2022-07-29T06:56:03;20.10;93.10
11812;DHT22;5963;50.184;9.162;2022-07-29T06:58:33;19.90;93.20
11812;DHT22;5963;50.184;9.162;2022-07-29T07:01:03;19.90;93.50
11812;DHT22;5963;50.184;9.162;2022-07-29T07:03:33;19.80;93.30
11812;DHT22;5963;50.184;9.162;2022-07-29T07:06:01;19.90;93.60
11812;DHT22;5963;50.184;9.162;2022-07-29T07:08:30;20.20;93.50
11812;DHT22;5963;50.184;9.162;2022-07-29T07:10:58;20.40;93.10
11812;DHT22;5963;50.184;9.162;2022-07-29T07:13:27;20.80;93.20
11812;DHT22;5963;50.184;9.162;2022-07-29T07:16:03;20.90;93.00
11812;DHT22;5963;50.184;9.162;2022-07-29T07:18:32;21.30;93.10
11812;DHT22;5963;50.184;9.162;2022-07-29T07:21:00;21.30;93.20
11812;DHT22;5963;50.184;9.162;2022-07-29T07:23:28;21.70;92.90
11812;DHT22;5963;50.184;9.162;2022-07-29T07:25:56;22.00;93.20
11812;DHT22;5963;50.184;9.162;2022-07-29T07:28:24;22.20;92.60
11812;DHT22;5963;50.184;9.162;2022-07-29T07:30:53;21.90;92.60
11812;DHT22;5963;50.184;9.162;2022-07-29T07:33:21;21.80;92.80
11812;DHT22;5963;50.184;9.162;2022-07-29T07:35:49;22.00;92.80
11812;DHT22;5963;50.184;9.162;2022-07-29T07:38:17;22.10;93.10
11812;DHT22;5963;50.184;9.162;2022-07-29T07:40:46;22.20;93.20
11812;DHT22;5963;50.184;9.162;2022-07-29T07:43:14;22.60;93.20
11812;DHT22;5963;50.184;9.162;2022-07-29T07:45:42;22.80;92.40
11812;DHT22;5963;50.184;9.162;2022-07-29T07:48:12;23.00;92.60
11812;DHT22;5963;50.184;9.162;2022-07-29T07:50:40;23.20;92.70
11812;DHT22;5963;50.184;9.162;2022-07-29T07:53:08;23.20;92.40
11812;DHT22;5963;50.184;9.162;2022-07-29T07:55:39;23.30;92.70
11812;DHT22;5963;50.184;9.162;2022-07-29T07:58:28;23.40;92.60
11812;DHT22;5963;50.184;9.162;2022-07-29T08:00:56;23.00;93.00
11812;DHT22;5963;50.184;9.162;2022-07-29T08:03:26;23.00;92.70
11812;DHT22;5963;50.184;9.162;2022-07-29T08:05:54;23.20;92.60
11812;DHT22;5963;50.184;9.162;2022-07-29T08:08:22;23.40;92.40
11812;DHT22;5963;50.184;9.162;2022-07-29T08:10:50;23.50;92.80
11812;DHT22;5963;50.184;9.162;2022-07-29T08:13:24;23.50;93.00
11812;DHT22;5963;50.184;9.162;2022-07-29T08:15:53;23.60;92.80
11812;DHT22;5963;50.184;9.162;2022-07-29T08:18:30;23.90;92.70
11812;DHT22;5963;50.184;9.162;2022-07-29T08:20:58;24.00;92.60
11812;DHT22;5963;50.184;9.162;2022-07-29T08:23:27;24.40;92.40
11812;DHT22;5963;50.184;9.162;2022-07-29T08:26:16;24.40;92.60
11812;DHT22;5963;50.184;9.162;2022-07-29T08:28:45;24.60;92.60
11812;DHT22;5963;50.184;9.162;2022-07-29T08:31:17;25.10;92.30
11812;DHT22;5963;50.184;9.162;2022-07-29T08:33:47;25.10;92.30
11812;DHT22;5963;50.184;9.162;2022-07-29T08:36:15;25.50;92.30
11812;DHT22;5963;50.184;9.162;2022-07-29T08:38:43;25.50;92.20
11812;DHT22;5963;50.184;9.162;2022-07-29T08:41:11;25.80;92.20
11812;DHT22;5963;50.184;9.162;2022-07-29T08:43:39;25.90;92.10
11812;DHT22;5963;50.184;9.162;2022-07-29T08:46:08;26.20;92.10
11812;DHT22;5963;50.184;9.162;2022-07-29T08:48:38;26.60;91.90
11812;DHT22;5963;50.184;9.162;2022-07-29T08:51:08;26.60;91.90
11812;DHT22;5963;50.184;9.162;2022-07-29T08:53:42;26.70;91.50
11812;DHT22;5963;50.184;9.162;2022-07-29T08:56:12;26.90;91.70
11812;DHT22;5963;50.184;9.162;2022-07-29T08:58:41;26.90;91.60
11812;DHT22;5963;50.184;9.162;2022-07-29T09:01:22;27.00;91.60
11812;DHT22;5963;50.184;9.162;2022-07-29T09:04:11;27.20;91.20
11812;DHT22;5963;50.184;9.162;2022-07-29T09:06:43;27.20;91.20
11812;DHT22;5963;50.184;9.162;2022-07-29T09:09:12;27.00;91.30
11812;DHT22;5963;50.184;9.162;2022-07-29T09:11:41;26.70;91.50
11812;DHT22;5963;50.184;9.162;2022-07-29T09:14:11;26.30;91.40
11812;DHT22;5963;50.184;9.162;2022-07-29T09:17:01;26.90;92.00
11812;DHT22;5963;50.184;9.162;2022-07-29T09:19:33;27.40;91.40
11812;DHT22;5963;50.184;9.162;2022-07-29T09:22:04;27.50;91.20
11812;DHT22;5963;50.184;9.162;2022-07-29T09:24:42;27.60;91.40
11812;DHT22;5963;50.184;9.162;2022-07-29T09:27:18;27.80;91.10
11812;DHT22;5963;50.184;9.162;2022-07-29T09:29:55;28.00;90.90
11812;DHT22;5963;50.184;9.162;2022-07-29T09:32:23;28.00;90.90
11812;DHT22;5963;50.184;9.162;2022-07-29T09:35:13;27.80;90.80
11812;DHT22;5963;50.184;9.162;2022-07-29T09:37:43;27.80;90.80
11812;DHT22;5963;50.184;9.162;2022-07-29T09:40:13;27.50;91.20
11812;DHT22;5963;50.184;9.162;2022-07-29T09:42:43;27.50;91.00
11812;DHT22;5963;50.184;9.162;2022-07-29T09:45:11;27.70;91.50
11812;DHT22;5963;50.184;9.162;2022-07-29T09:47:44;27.70;91.10
11812;DHT22;5963;50.184;9.162;2022-07-29T09:50:13;27.90;90.80
11812;DHT22;5963;50.184;9.162;2022-07-29T09:52:47;27.90;91.20
11812;DHT22;5963;50.184;9.162;2022-07-29T09:55:16;28.00;90.90
11812;DHT22;5963;50.184;9.162;2022-07-29T09:57:46;28.40;91.30
11812;DHT22;5963;50.184;9.162;2022-07-29T10:00:16;28.20;91.20
11812;DHT22;5963;50.184;9.162;2022-07-29T10:02:46;28.50;91.00
11812;DHT22;5963;50.184;9.162;2022-07-29T10:05:20;28.70;90.40
11812;DHT22;5963;50.184;9.162;2022-07-29T10:07:50;28.80;90.40
11812;DHT22;5963;50.184;9.162;2022-07-29T10:10:24;28.60;90.20
11812;DHT22;5963;50.184;9.162;2022-07-29T10:12:54;28.40;91.00
11812;DHT22;5963;50.184;9.162;2022-07-29T10:15:27;28.50;90.80
11812;DHT22;5963;50.184;9.162;2022-07-29T10:17:56;28.40;90.80
11812;DHT22;5963;50.184;9.162;2022-07-29T10:20:26;28.70;91.00
11812;DHT22;5963;50.184;9.162;2022-07-29T10:22:58;29.00;91.00
11812;DHT22;5963;50.184;9.162;2022-07-29T10:25:27;29.50;90.40
11812;DHT22;5963;50.184;9.162;2022-07-29T10:27:55;29.70;89.80
11812;DHT22;5963;50.184;9.162;2022-07-29T10:30:24;29.70;88.60
11812;DHT22;5963;50.184;9.162;2022-07-29T10:33:21;30.00;88.60
11812;DHT22;5963;50.184;9.162;2022-07-29T10:36:04;30.30;88.20
11812;DHT22;5963;50.184;9.162;2022-07-29T10:38:45;30.30;87.10
11812;DHT22;5963;50.184;9.162;2022-07-29T10:41:43;30.00;87.80
11812;DHT22;5963;50.184;9.162;2022-07-29T10:44:17;29.80;87.20
11812;DHT22;5963;50.184;9.162;2022-07-29T10:46:50;29.50;88.80
11812;DHT22;5963;50.184;9.162;2022-07-29T10:49:20;29.40;87.80
11812;DHT22;5963;50.184;9.162;2022-07-29T10:52:05;29.10;88.10
11812;DHT22;5963;50.184;9.162;2022-07-29T10:54:53;29.60;88.80
11812;DHT22;5963;50.184;9.162;2022-07-29T10:57:26;30.00;87.40
11812;DHT22;5963;50.184;9.162;2022-07-29T11:00:30;30.30;87.40
11812;DHT22;5963;50.184;9.162;2022-07-29T11:02:58;30.20;86.10
11812;DHT22;5963;50.184;9.162;2022-07-29T11:05:55;29.90;86.60
11812;DHT22;5963;50.184;9.162;2022-07-29T11:08:26;29.10;87.70
11812;DHT22;5963;50.184;9.162;2022-07-29T11:14:18;29.10;88.20
11812;DHT22;5963;50.184;9.162;2022-07-29T11:17:04;29.40;88.10
11812;DHT22;5963;50.184;9.162;2022-07-29T11:19:34;28.70;87.60
11812;DHT22;5963;50.184;9.162;2022-07-29T11:22:09;28.80;88.80
11812;DHT22;5963;50.184;9.162;2022-07-29T11:24:42;29.40;88.90
11812;DHT22;5963;50.184;9.162;2022-07-29T11:27:17;29.30;86.90
11812;DHT22;5963;50.184;9.162;2022-07-29T11:29:53;29.80;87.40
11812;DHT22;5963;50.184;9.162;2022-07-29T11:32:23;30.50;86.90
11812;DHT22;5963;50.184;9.162;2022-07-29T11:35:19;31.00;86.40
11812;DHT22;5963;50.184;9.162;2022-07-29T11:38:24;30.90;85.90
11812;DHT22;5963;50.184;9.162;2022-07-29T11:41:20;31.10;85.50
11812;DHT22;5963;50.184;9.162;2022-07-29T11:43:50;31.00;84.80
11812;DHT22;5963;50.184;9.162;2022-07-29T11:46:48;31.10;84.90
11812;DHT22;5963;50.184;9.162;2022-07-29T11:49:19;31.20;84.80
11812;DHT22;5963;50.184;9.162;2022-07-29T11:51:58;31.50;84.80
11812;DHT22;5963;50.184;9.162;2022-07-29T11:54:31;30.70;84.50
11812;DHT22;5963;50.184;9.162;2022-07-29T11:57:22;31.00;85.10
11812;DHT22;5963;50.184;9.162;2022-07-29T12:00:12;31.20;84.00
11812;DHT22;5963;50.184;9.162;2022-07-29T12:02:51;31.60;84.60
11812;DHT22;5963;50.184;9.162;2022-07-29T12:05:20;31.30;85.00
11812;DHT22;5963;50.184;9.162;2022-07-29T12:08:13;30.60;85.00
11812;DHT22;5963;50.184;9.162;2022-07-29T12:10:43;30.70;85.10
11812;DHT22;5963;50.184;9.162;2022-07-29T12:13:15;30.70;83.70
11812;DHT22;5963;50.184;9.162;2022-07-29T12:15:52;30.00;84.40
11812;DHT22;5963;50.184;9.162;2022-07-29T12:18:27;30.50;84.50
11812;DHT22;5963;50.184;9.162;2022-07-29T12:21:00;30.80;85.10
11812;DHT22;5963;50.184;9.162;2022-07-29T12:23:30;31.10;84.50
11812;DHT22;5963;50.184;9.162;2022-07-29T12:26:03;30.60;83.80
11812;DHT22;5963;50.184;9.162;2022-07-29T12:28:37;30.80;85.90
11812;DHT22;5963;50.184;9.162;2022-07-29T12:31:11;30.60;85.30
11812;DHT22;5963;50.184;9.162;2022-07-29T12:33:42;31.20;83.40
11812;DHT22;5963;50.184;9.162;2022-07-29T12:36:10;31.30;83.30
11812;DHT22;5963;50.184;9.162;2022-07-29T12:38:44;31.20;83.80
11812;DHT22;5963;50.184;9.162;2022-07-29T12:41:15;31.60;83.70
11812;DHT22;5963;50.184;9.162;2022-07-29T12:43:52;31.50;82.80
11812;DHT22;5963;50.184;9.162;2022-07-29T12:46:23;31.80;83.00
11812;DHT22;5963;50.184;9.162;2022-07-29T12:48:53;32.10;82.60
11812;DHT22;5963;50.184;9.162;2022-07-29T12:51:29;32.20;81.10
11812;DHT22;5963;50.184;9.162;2022-07-29T12:54:05;31.40;82.30
11812;DHT22;5963;50.184;9.162;2022-07-29T12:56:34;31.50;82.80
11812;DHT22;5963;50.184;9.162;2022-07-29T12:59:18;31.30;83.60
11812;DHT22;5963;50.184;9.162;2022-07-29T13:01:47;31.20;81.90
11812;DHT22;5963;50.184;9.162;2022-07-29T13:04:27;31.30;82.60
11812;DHT22;5963;50.184;9.162;2022-07-29T13:07:00;31.80;82.20
11812;DHT22;5963;50.184;9.162;2022-07-29T13:09:38;32.00;81.50
11812;DHT22;5963;50.184;9.162;2022-07-29T13:12:08;32.20;81.20
11812;DHT22;5963;50.184;9.162;2022-07-29T13:14:38;32.10;81.80
11812;DHT22;5963;50.184;9.162;2022-07-29T13:17:08;32.10;82.00
11812;DHT22;5963;50.184;9.162;2022-07-29T13:19:39;32.20;81.10
11812;DHT22;5963;50.184;9.162;2022-07-29T13:22:09;32.10;81.00
11812;DHT22;5963;50.184;9.162;2022-07-29T13:24:48;32.30;81.10
11812;DHT22;5963;50.184;9.162;2022-07-29T13:27:16;32.30;80.00
11812;DHT22;5963;50.184;9.162;2022-07-29T13:29:44;32.30;81.10
11812;DHT22;5963;50.184;9.162;2022-07-29T13:32:13;32.60;80.30
11812;DHT22;5963;50.184;9.162;2022-07-29T13:34:43;32.80;80.00
11812;DHT22;5963;50.184;9.162;2022-07-29T13:37:11;32.90;79.70
11812;DHT22;5963;50.184;9.162;2022-07-29T13:39:39;32.20;80.30
11812;DHT22;5963;50.184;9.162;2022-07-29T13:42:18;32.40;79.20
11812;DHT22;5963;50.184;9.162;2022-07-29T13:44:47;32.50;79.90
11812;DHT22;5963;50.184;9.162;2022-07-29T13:47:15;32.80;79.30
11812;DHT22;5963;50.184;9.162;2022-07-29T13:49:44;32.70;78.70
11812;DHT22;5963;50.184;9.162;2022-07-29T13:52:13;32.60;78.70
11812;DHT22;5963;50.184;9.162;2022-07-29T13:54:42;32.70;79.50
11812;DHT22;5963;50.184;9.162;2022-07-29T13:57:11;32.60;78.00
11812;DHT22;5963;50.184;9.162;2022-07-29T13:59:39;32.40;78.70
11812;DHT22;5963;50.184;9.162;2022-07-29T14:02:09;32.20;78.10
11812;DHT22;5963;50.184;9.162;2022-07-29T14:04:41;31.00;79.70
11812;DHT22;5963;50.184;9.162;2022-07-29T14:07:10;30.70;79.90
11812;DHT22;5963;50.184;9.162;2022-07-29T14:09:42;30.80;79.40
11812;DHT22;5963;50.184;9.162;2022-07-29T14:12:10;30.50;81.00
11812;DHT22;5963;50.184;9.162;2022-07-29T14:14:38;30.80;80.20
11812;DHT22;5963;50.184;9.162;2022-07-29T14:17:08;30.90;80.00
11812;DHT22;5963;50.184;9.162;2022-07-29T14:19:42;30.40;80.50
11812;DHT22;5963;50.184;9.162;2022-07-29T14:22:11;30.60;81.00
11812;DHT22;5963;50.184;9.162;2022-07-29T14:24:42;30.80;80.40
11812;DHT22;5963;50.184;9.162;2022-07-29T14:27:10;31.10;79.80
11812;DHT22;5963;50.184;9.162;2022-07-29T14:29:38;31.10;79.80
11812;DHT22;5963;50.184;9.162;2022-07-29T14:32:07;31.40;79.30
11812;DHT22;5963;50.184;9.162;2022-07-29T14:34:37;31.50;79.90
11812;DHT22;5963;50.184;9.162;2022-07-29T14:37:06;31.20;80.50
11812;DHT22;5963;50.184;9.162;2022-07-29T14:39:42;31.20;80.60
11812;DHT22;5963;50.184;9.162;2022-07-29T14:42:11;31.40;78.60
11812;DHT22;5963;50.184;9.162;2022-07-29T14:44:39;31.40;78.70
11812;DHT22;5963;50.184;9.162;2022-07-29T14:47:08;31.30;80.20
11812;DHT22;5963;50.184;9.162;2022-07-29T14:49:36;31.00;80.10
11812;DHT22;5963;50.184;9.162;2022-07-29T14:52:05;30.90;79.90
11812;DHT22;5963;50.184;9.162;2022-07-29T14:54:33;30.90;80.30
11812;DHT22;5963;50.184;9.162;2022-07-29T14:57:02;30.90;80.40
11812;DHT22;5963;50.184;9.162;2022-07-29T14:59:31;31.00;80.70
11812;DHT22;5963;50.184;9.162;2022-07-29T15:02:02;30.80;80.40
11812;DHT22;5963;50.184;9.162;2022-07-29T15:04:32;30.70;79.80
11812;DHT22;5963;50.184;9.162;2022-07-29T15:07:01;30.60;80.00
11812;DHT22;5963;50.184;9.162;2022-07-29T15:09:30;30.40;81.10
11812;DHT22;5963;50.184;9.162;2022-07-29T15:12:03;30.10;80.30
11812;DHT22;5963;50.184;9.162;2022-07-29T15:14:32;29.90;81.00
11812;DHT22;5963;50.184;9.162;2022-07-29T15:17:00;29.80;80.80
11812;DHT22;5963;50.184;9.162;2022-07-29T15:19:30;29.20;88.10
11812;DHT22;5963;50.184;9.162;2022-07-29T15:21:58;27.70;92.20
11812;DHT22;5963;50.184;9.162;2022-07-29T15:24:27;25.80;95.90
11812;DHT22;5963;50.184;9.162;2022-07-29T15:26:55;25.00;99.90
11812;DHT22;5963;50.184;9.162;2022-07-29T15:29:25;23.70;99.90
11812;DHT22;5963;50.184;9.162;2022-07-29T15:31:53;22.30;99.90
11812;DHT22;5963;50.184;9.162;2022-07-29T15:34:22;21.60;99.90
11812;DHT22;5963;50.184;9.162;2022-07-29T15:36:50;21.10;99.90
11812;DHT22;5963;50.184;9.162;2022-07-29T15:39:20;20.60;99.90
11812;DHT22;5963;50.184;9.162;2022-07-29T15:41:49;20.00;99.90
11812;DHT22;5963;50.184;9.162;2022-07-29T15:44:17;19.50;99.90
11812;DHT22;5963;50.184;9.162;2022-07-29T15:46:48;19.10;99.90
11812;DHT22;5963;50.184;9.162;2022-07-29T15:49:34;19.00;99.90
11812;DHT22;5963;50.184;9.162;2022-07-29T15:52:15;18.80;99.90
11812;DHT22;5963;50.184;9.162;2022-07-29T15:54:44;18.50;99.90
11812;DHT22;5963;50.184;9.162;2022-07-29T15:57:12;18.40;99.90
11812;DHT22;5963;50.184;9.162;2022-07-29T15:59:40;18.40;99.90
11812;DHT22;5963;50.184;9.162;2022-07-29T16:02:10;18.50;99.90
11812;DHT22;5963;50.184;9.162;2022-07-29T16:04:38;18.60;99.90
11812;DHT22;5963;50.184;9.162;2022-07-29T16:07:06;18.60;99.90
11812;DHT22;5963;50.184;9.162;2022-07-29T16:09:34;18.60;99.90
11812;DHT22;5963;50.184;9.162;2022-07-29T16:12:03;18.60;99.90
11812;DHT22;5963;50.184;9.162;2022-07-29T16:14:41;18.60;99.90
11812;DHT22;5963;50.184;9.162;2022-07-29T16:17:11;18.70;99.90
11812;DHT22;5963;50.184;9.162;2022-07-29T16:19:41;18.60;99.90